createdAt,value
2022-10-19T00:02:30.635Z,25.23
2022-10-19T00:07:33.010Z,25.95
2022-10-19T00:12:34.173Z,24.92
2022-10-19T00:17:35.964Z,22.75
2022-10-19T00:22:38.160Z,23.65
2022-10-19T00:27:38.966Z,23.02
2022-10-19T00:32:39.784Z,22.45
2022-10-19T00:37:42.028Z,20.83
2022-10-19T00:42:42.833Z,18.98
2022-10-19T00:47:46.015Z,16.90
2022-10-19T00:52:48.356Z,16.73
2022-10-19T00:57:49.150Z,18.67
2022-10-19T01:02:49.946Z,18.10
2022-10-19T01:07:52.119Z,15.88
2022-10-19T01:13:09.014Z,16.08
2022-10-19T01:18:19.207Z,16.15
2022-10-19T01:23:57.153Z,17.35
2022-10-19T01:29:12.078Z,15.75
2022-10-19T01:34:20.494Z,16.55
2022-10-19T01:39:36.933Z,16.17
2022-10-19T01:44:46.093Z,15.90
2022-10-19T01:49:51.285Z,15.13
2022-10-19T01:54:57.517Z,17.30
2022-10-19T01:59:58.879Z,17.23
2022-10-19T02:05:02.550Z,17.23
2022-10-19T02:10:03.359Z,15.57
2022-10-19T02:15:10.405Z,16.25
2022-10-19T02:20:13.438Z,15.85
2022-10-19T02:25:14.529Z,15.13
2022-10-19T02:30:18.415Z,15.07
2022-10-19T02:35:20.913Z,15.35
2022-10-19T02:40:22.146Z,14.95
2022-10-19T02:45:26.987Z,14.35
2022-10-19T02:50:29.518Z,13.13
2022-10-19T02:55:31.738Z,13.43
2022-10-19T03:00:32.609Z,13.52
2022-10-19T03:05:34.735Z,11.93
2022-10-19T03:10:35.500Z,11.85
2022-10-19T03:15:36.283Z,10.85
2022-10-19T03:20:38.410Z,11.18
2022-10-19T03:25:39.202Z,11.38
2022-10-19T03:30:40.066Z,11.30
2022-10-19T03:35:42.298Z,10.05
2022-10-19T03:40:43.210Z,9.40
2022-10-19T03:45:47.283Z,9.98
2022-10-19T03:50:49.428Z,9.80
2022-10-19T03:55:50.209Z,11.07
2022-10-19T04:00:51.027Z,9.70
2022-10-19T04:05:53.514Z,10.18
2022-10-19T04:10:54.317Z,10.15
2022-10-19T04:15:55.152Z,9.23
2022-10-19T04:21:01.691Z,10.55
2022-10-19T04:26:02.881Z,10.50
2022-10-19T04:31:04.694Z,11.68
2022-10-19T04:36:09.454Z,10.32
2022-10-19T04:41:11.775Z,10.45
2022-10-19T04:46:14.981Z,9.93
2022-10-19T04:51:18.096Z,10.73
2022-10-19T04:56:21.040Z,11.15
2022-10-19T05:01:23.209Z,10.07
2022-10-19T05:06:26.018Z,10.70
2022-10-19T05:11:27.293Z,11.95
2022-10-19T05:16:28.215Z,10.27
2022-10-19T05:21:30.523Z,11.50
2022-10-19T05:26:31.312Z,10.30
2022-10-19T05:31:33.918Z,10.75
2022-10-19T05:36:37.815Z,10.45
2022-10-19T05:41:38.781Z,10.55
2022-10-19T05:46:39.596Z,10.98
2022-10-19T05:51:42.186Z,9.82
2022-10-19T05:56:43.537Z,10.88
2022-10-19T06:01:44.540Z,11.05
2022-10-19T06:06:46.739Z,10.70
2022-10-19T06:11:48.873Z,10.88
2022-10-19T06:16:49.657Z,10.48
2022-10-19T06:21:51.820Z,9.73
2022-10-19T06:26:52.580Z,8.27
2022-10-19T06:31:54.504Z,8.02
2022-10-19T06:36:56.698Z,7.88
2022-10-19T06:41:57.533Z,8.35
2022-10-19T06:46:59.143Z,7.60
2022-10-19T06:52:01.369Z,6.30
2022-10-19T06:57:02.163Z,5.70
2022-10-19T07:02:02.949Z,5.63
2022-10-19T07:07:05.676Z,5.00
2022-10-19T07:12:06.743Z,4.45
2022-10-19T07:17:07.937Z,5.05
2022-10-19T07:22:10.326Z,4.60
2022-10-19T07:27:11.327Z,4.43
2022-10-19T07:32:12.679Z,4.60
2022-10-19T07:37:14.820Z,4.63
2022-10-19T07:42:15.653Z,4.60
2022-10-19T07:47:16.492Z,4.38
2022-10-19T07:52:18.677Z,3.53
2022-10-19T07:57:19.578Z,4.10
2022-10-19T08:02:20.564Z,2.65
2022-10-19T08:07:22.717Z,3.65
2022-10-19T08:12:23.499Z,3.63
2022-10-19T08:17:24.292Z,3.22
2022-10-19T08:22:26.609Z,3.85
2022-10-19T08:27:27.527Z,3.25
2022-10-19T08:32:28.358Z,3.90
2022-10-19T08:37:44.370Z,3.22
2022-10-19T08:42:54.603Z,3.22
2022-10-19T08:48:01.643Z,3.60
2022-10-19T08:53:06.441Z,3.08
2022-10-19T08:58:21.573Z,3.42
2022-10-19T09:03:50.705Z,2.88
2022-10-19T09:08:51.561Z,3.38
2022-10-19T09:14:06.551Z,2.83
2022-10-19T09:19:16.745Z,2.25
2022-10-19T09:24:29.152Z,2.33
2022-10-19T09:29:38.468Z,2.15
2022-10-19T09:34:44.561Z,1.90
2022-10-19T09:39:52.391Z,2.30
2022-10-19T09:44:56.486Z,1.95
2022-10-19T09:50:08.599Z,3.33
2022-10-19T09:55:23.990Z,2.35
2022-10-19T10:00:32.190Z,4.38
2022-10-19T10:05:35.816Z,1.90
2022-10-19T10:10:40.535Z,1.55
2022-10-19T10:15:45.160Z,1.15
2022-10-19T10:21:04.862Z,1.58
2022-10-19T10:26:18.194Z,1.27
2022-10-19T10:31:24.727Z,1.85
2022-10-19T10:36:27.840Z,1.33
2022-10-19T10:41:32.626Z,1.35
2022-10-19T10:46:36.283Z,1.48
2022-10-19T10:51:40.654Z,1.40
2022-10-19T10:56:44.666Z,1.17
2022-10-19T11:01:56.981Z,1.00
2022-10-19T11:07:02.429Z,0.75
2022-10-19T11:12:10.134Z,0.65
2022-10-19T11:17:18.013Z,1.75
2022-10-19T11:22:27.401Z,0.88
2022-10-19T11:27:42.115Z,1.00
2022-10-19T11:33:02.628Z,0.93
2022-10-19T11:38:21.362Z,0.70
2022-10-19T11:43:35.824Z,0.80
2022-10-19T11:48:52.939Z,0.50
2022-10-19T11:54:10.028Z,0.43
2022-10-19T11:59:24.872Z,0.40
2022-10-19T12:04:43.104Z,0.40
2022-10-19T12:09:53.846Z,0.32
2022-10-19T12:15:13.992Z,0.65
2022-10-19T12:20:23.155Z,0.70
2022-10-19T12:25:24.579Z,0.60
2022-10-19T12:30:26.895Z,0.55
2022-10-19T12:35:52.465Z,0.57
2022-10-19T12:41:01.759Z,0.25
2022-10-19T12:46:14.776Z,0.40
2022-10-19T12:51:18.216Z,0.38
2022-10-19T12:56:23.811Z,0.55
2022-10-19T13:01:29.751Z,0.25
2022-10-19T13:06:36.144Z,0.50
2022-10-19T13:11:57.984Z,0.43
2022-10-19T13:17:01.932Z,0.52
2022-10-19T13:22:28.095Z,0.45
2022-10-19T13:27:38.425Z,0.70
2022-10-19T13:32:46.441Z,0.90
2022-10-19T13:37:47.327Z,0.47
2022-10-19T13:42:58.535Z,0.47
2022-10-19T13:48:15.899Z,0.77
2022-10-19T13:53:42.029Z,0.50
2022-10-19T13:59:09.710Z,0.50
2022-10-19T14:04:22.298Z,0.50
2022-10-19T14:09:39.401Z,0.65
2022-10-19T14:19:52.322Z,0.50
2022-10-19T14:24:53.275Z,0.55
2022-10-19T14:29:55.443Z,0.60
2022-10-19T14:35:02.064Z,0.55
2022-10-19T14:40:08.325Z,0.60
2022-10-19T14:45:16.058Z,0.57
2022-10-19T14:50:19.070Z,1.00
2022-10-19T14:55:22.074Z,0.70
2022-10-19T15:05:36.571Z,1.02
2022-10-19T15:10:43.764Z,0.82
2022-10-19T15:15:44.570Z,1.20
2022-10-19T15:20:54.998Z,0.63
2022-10-19T15:26:17.665Z,0.70
2022-10-19T15:31:21.567Z,0.80
2022-10-19T15:36:25.161Z,0.98
2022-10-19T15:41:29.080Z,0.70
2022-10-19T15:46:32.603Z,0.75
2022-10-19T15:51:37.572Z,1.48
2022-10-19T15:56:40.507Z,0.98
2022-10-19T16:01:42.020Z,0.60
2022-10-19T16:06:46.181Z,0.75
2022-10-19T16:11:47.639Z,0.90
2022-10-19T16:16:51.136Z,0.60
2022-10-19T16:21:53.650Z,0.75
2022-10-19T16:26:54.415Z,0.90
2022-10-19T16:31:55.193Z,1.00
2022-10-19T16:36:57.333Z,0.70
2022-10-19T16:41:58.177Z,0.90
2022-10-19T16:46:59.810Z,1.00
2022-10-19T16:52:02.008Z,1.00
2022-10-19T16:57:07.121Z,0.85
2022-10-19T17:02:11.030Z,0.90
2022-10-19T17:07:13.282Z,1.05
2022-10-19T17:12:14.143Z,1.08
2022-10-19T17:17:17.150Z,1.00
2022-10-19T17:22:19.347Z,0.90
2022-10-19T17:27:20.181Z,1.17
2022-10-19T17:32:20.966Z,1.33
2022-10-19T17:37:23.552Z,1.20
2022-10-19T17:42:24.396Z,1.48
2022-10-19T17:47:25.152Z,1.38
2022-10-19T17:52:27.292Z,1.45
2022-10-19T17:57:28.152Z,1.83
2022-10-19T18:02:29.041Z,1.80
2022-10-19T18:07:32.206Z,2.10
2022-10-19T18:12:33.173Z,1.85
2022-10-19T18:17:34.184Z,2.00
2022-10-19T18:22:36.627Z,1.98
2022-10-19T18:27:37.806Z,2.10
2022-10-19T18:32:38.808Z,2.47
2022-10-19T18:37:40.931Z,2.08
2022-10-19T18:42:41.709Z,2.50
2022-10-19T18:47:42.501Z,2.38
2022-10-19T18:52:44.737Z,2.80
2022-10-19T18:57:45.550Z,2.83
2022-10-19T19:02:54.251Z,3.10
2022-10-19T19:07:56.651Z,3.30
2022-10-19T19:12:57.486Z,3.00
2022-10-19T19:17:58.513Z,3.25
2022-10-19T19:23:00.685Z,3.78
2022-10-19T19:28:01.591Z,4.07
2022-10-19T19:33:02.399Z,3.60
2022-10-19T19:38:04.651Z,4.00
2022-10-19T19:43:05.427Z,4.47
2022-10-19T19:48:08.210Z,4.28
2022-10-19T19:53:10.516Z,5.03
2022-10-19T19:58:11.272Z,5.38
2022-10-19T20:03:13.246Z,7.10
2022-10-19T20:08:15.424Z,6.20
2022-10-19T20:13:16.317Z,6.40
2022-10-19T20:18:17.328Z,6.10
2022-10-19T20:23:22.642Z,6.25
2022-10-19T20:28:23.645Z,7.38
2022-10-19T20:33:24.428Z,7.93
2022-10-19T20:38:27.649Z,6.55
2022-10-19T20:43:28.500Z,7.47
2022-10-19T20:48:29.291Z,6.80
2022-10-19T20:53:31.469Z,6.97
2022-10-19T20:58:32.464Z,7.50
2022-10-19T21:03:33.313Z,6.72
2022-10-19T21:08:36.258Z,6.60
2022-10-19T21:13:37.066Z,5.78
2022-10-19T21:18:37.952Z,6.70
2022-10-19T21:23:40.219Z,5.95
2022-10-19T21:28:41.765Z,5.53
2022-10-19T21:33:43.006Z,6.82
2022-10-19T21:38:45.183Z,6.97
2022-10-19T21:43:46.034Z,6.38
2022-10-19T21:48:47.422Z,6.75
2022-10-19T21:53:49.657Z,6.35
2022-10-19T21:58:52.423Z,5.53
2022-10-19T22:03:57.232Z,5.95
2022-10-19T22:08:59.989Z,5.28
2022-10-19T22:14:02.436Z,5.88
2022-10-19T22:19:04.974Z,5.13
2022-10-19T22:24:10.033Z,6.30
2022-10-19T22:29:11.461Z,4.07
2022-10-19T22:34:14.627Z,5.03
2022-10-19T22:39:16.951Z,4.57
2022-10-19T22:44:17.701Z,4.82
2022-10-19T22:49:18.418Z,4.55
2022-10-19T22:54:20.512Z,4.47
2022-10-19T22:59:21.270Z,5.03
2022-10-19T23:04:22.151Z,4.88
2022-10-19T23:09:24.474Z,4.28
2022-10-19T23:14:25.274Z,4.47
2022-10-19T23:19:26.043Z,4.03
2022-10-19T23:24:28.153Z,3.75
2022-10-19T23:29:28.934Z,3.65
2022-10-19T23:34:29.714Z,3.50
2022-10-19T23:39:31.837Z,4.15
2022-10-19T23:44:32.640Z,3.60
2022-10-19T23:49:33.380Z,3.88
2022-10-19T23:54:35.565Z,4.25
2022-10-19T23:59:36.373Z,4.47
